Time;durP1;ratioP1;P1;durP2;ratioP2;P2;SDS_P1;SDS_P2;PMS_P1;PMS_P2;Temp;Humidity;BMP_temperature;BMP_pressure;BME280_temperature;BME280_humidity;BME280_pressure;Samples;Min_cycle;Max_cycle;Signal;HPM_P1;HPM_P2
2023/03/14 00:00:12;;;;;;;6.13;2.30;;;;;;;10.78;89.45;98927.16;5129252;28;20032;-62
2023/03/14 00:02:38;;;;;;;7.07;2.17;;;;;;;10.74;88.56;98924.00;5119663;28;20027;-62
2023/03/14 00:05:06;;;;;;;6.95;2.00;;;;;;;10.73;88.17;98919.69;5092442;28;20503;-62
2023/03/14 00:07:39;;;;;;;9.07;2.22;;;;;;;10.70;87.22;98920.00;5110065;27;20028;-62
2023/03/14 00:10:07;;;;;;;4.88;2.03;;;;;;;10.66;86.66;98920.53;5122204;27;20035;-62
2023/03/14 00:12:33;;;;;;;10.57;2.33;;;;;;;10.64;86.13;98917.19;5121659;27;20036;-62
2023/03/14 00:15:00;;;;;;;7.00;2.25;;;;;;;10.60;85.10;98915.88;5110441;28;20028;-62
2023/03/14 00:17:26;;;;;;;11.20;2.28;;;;;;;10.55;84.01;98922.47;5119942;28;20120;-62
2023/03/14 00:19:53;;;;;;;8.40;2.05;;;;;;;10.51;83.64;98926.47;5120389;28;20034;-62
2023/03/14 00:22:19;;;;;;;12.80;2.50;;;;;;;10.46;83.54;98936.75;5121330;27;20031;-62
2023/03/14 00:24:44;;;;;;;9.02;2.30;;;;;;;10.43;83.15;98934.44;5115114;27;20024;-62
2023/03/14 00:27:10;;;;;;;6.30;1.73;;;;;;;10.40;82.93;98949.84;5120481;27;20019;-62
2023/03/14 00:29:35;;;;;;;7.38;2.05;;;;;;;10.36;82.90;98939.56;5109677;27;20103;-62
2023/03/14 00:32:00;;;;;;;10.77;2.42;;;;;;;10.34;83.12;98946.00;5120665;27;20023;-62
2023/03/14 00:34:30;;;;;;;8.27;2.03;;;;;;;10.32;83.92;98950.66;5114937;27;20087;-62
2023/03/14 00:36:55;;;;;;;7.90;2.05;;;;;;;10.30;84.08;98958.75;5115252;27;20026;-62
2023/03/14 00:39:21;;;;;;;8.75;2.00;;;;;;;10.27;84.01;98953.75;5120955;27;20012;-62
2023/03/14 00:41:46;;;;;;;8.80;1.95;;;;;;;10.29;82.91;98949.13;5111533;27;20127;-62
2023/03/14 00:44:11;;;;;;;6.53;2.00;;;;;;;10.25;82.78;98945.13;5117597;28;20050;-62
2023/03/14 00:46:37;;;;;;;8.02;2.00;;;;;;;10.26;83.59;98948.59;5106942;28;20051;-62
2023/03/14 00:49:02;;;;;;;8.82;2.53;;;;;;;10.26;83.82;98954.75;5121414;27;20106;-62
2023/03/14 00:51:27;;;;;;;6.10;2.13;;;;;;;10.24;83.52;98950.59;5119664;27;20050;-62
2023/03/14 00:53:53;;;;;;;8.90;2.15;;;;;;;10.25;82.99;98954.94;5119389;28;20035;-62
2023/03/14 00:56:18;;;;;;;9.98;2.10;;;;;;;10.22;83.29;98955.25;5119814;27;20072;-62
2023/03/14 00:58:43;;;;;;;11.05;2.28;;;;;;;10.23;83.91;98948.97;5119233;27;20034;-62
2023/03/14 01:01:13;;;;;;;7.15;2.63;;;;;;;10.21;83.63;98946.47;5121106;27;20016;-62
2023/03/14 01:03:38;;;;;;;9.23;2.40;;;;;;;10.18;83.76;98942.28;5116977;27;20040;-62
2023/03/14 01:06:13;;;;;;;6.47;2.03;;;;;;;10.16;83.68;98938.97;5119381;27;20016;-62
2023/03/14 01:08:38;;;;;;;6.60;1.80;;;;;;;10.16;83.35;98935.50;5119929;27;20031;-62
2023/03/14 01:11:10;;;;;;;6.45;1.77;;;;;;;10.15;83.68;98939.16;5116169;27;20023;-62
2023/03/14 01:13:35;;;;;;;6.03;1.73;;;;;;;10.12;83.76;98942.94;5119610;27;20020;-62
2023/03/14 01:16:06;;;;;;;5.35;1.83;;;;;;;10.11;83.26;98935.16;5120054;27;20053;-62
2023/03/14 01:18:32;;;;;;;5.97;2.33;;;;;;;10.12;83.22;98929.66;5118101;27;20036;-62
2023/03/14 01:20:58;;;;;;;7.82;1.80;;;;;;;10.10;83.07;98926.34;5119400;28;20028;-62
2023/03/14 01:23:23;;;;;;;8.02;1.88;;;;;;;10.08;83.49;98938.97;5119693;27;20427;-62
2023/03/14 01:25:48;;;;;;;8.52;2.13;;;;;;;10.08;83.38;98938.13;5121172;27;20045;-62
2023/03/14 01:28:14;;;;;;;6.22;1.75;;;;;;;10.07;83.13;98923.19;5120008;27;20024;-62
2023/03/14 01:30:39;;;;;;;8.05;1.60;;;;;;;10.05;82.92;98928.66;5119720;27;20424;-62
2023/03/14 01:33:04;;;;;;;7.00;1.85;;;;;;;10.04;82.84;98926.19;5118361;27;20088;-62
2023/03/14 01:35:30;;;;;;;6.43;1.83;;;;;;;10.02;82.93;98931.63;5119100;28;20389;-62
2023/03/14 01:37:55;;;;;;;9.27;1.92;;;;;;;10.00;83.61;98923.84;5120267;27;20028;-62
2023/03/14 01:40:20;;;;;;;6.32;1.63;;;;;;;10.00;83.23;98923.84;5118345;27;20077;-62
2023/03/14 01:43:06;;;;;;;6.45;1.90;;;;;;;10.00;83.68;98912.41;5115359;28;20085;-61
2023/03/14 01:46:05;;;;;;;8.05;2.03;;;;;;;9.99;84.06;98906.28;5120661;27;20030;-62
2023/03/14 01:48:37;;;;;;;;;;;;;;;10.01;84.04;98914.09;5117831;28;20020;-62
2023/03/14 01:51:06;;;;;;;7.78;2.33;;;;;;;9.97;83.79;98902.13;5110682;27;19998;-62
2023/03/14 01:53:31;;;;;;;;;;;;;;;9.98;84.05;98896.66;5108396;27;20036;-62
2023/03/14 01:55:57;;;;;;;9.53;1.83;;;;;;;9.94;84.73;98894.47;5114994;27;19911;-62
2023/03/14 01:58:27;;;;;;;6.82;2.15;;;;;;;9.92;84.63;98896.47;5119127;27;20280;-62
2023/03/14 02:00:52;;;;;;;6.18;1.95;;;;;;;9.91;84.99;98887.69;5116908;27;20035;-62
2023/03/14 02:03:21;;;;;;;12.75;2.58;;;;;;;9.90;85.25;98879.91;5115816;28;20033;-62
2023/03/14 02:05:48;;;;;;;8.65;2.10;;;;;;;9.93;85.18;98876.94;5119101;27;20015;-62
2023/03/14 02:08:17;;;;;;;10.65;2.33;;;;;;;9.90;85.64;98874.59;5116153;28;20035;-62
2023/03/14 02:10:49;;;;;;;10.88;2.63;;;;;;;9.91;86.11;98881.53;5116497;27;20034;-62
2023/03/14 02:13:17;;;;;;;6.75;2.30;;;;;;;9.90;86.24;98880.72;5118088;27;20019;-62
2023/03/14 02:15:42;;;;;;;8.32;2.83;;;;;;;9.90;86.46;98877.25;5117860;28;20027;-62
2023/03/14 02:18:09;;;;;;;8.20;2.53;;;;;;;9.88;86.71;98877.41;5110267;27;20039;-62
2023/03/14 02:21:06;;;;;;;10.23;2.38;;;;;;;9.90;86.97;98880.72;5113223;28;20031;-62
2023/03/14 02:23:47;;;;;;;13.38;3.00;;;;;;;9.89;86.96;98880.88;5111864;27;20040;-63
2023/03/14 02:26:22;;;;;;;10.13;2.67;;;;;;;9.86;87.14;98873.25;5117245;28;20031;-63
2023/03/14 02:28:48;;;;;;;6.50;2.08;;;;;;;9.86;87.38;98883.84;5106200;28;20427;-63
2023/03/14 02:31:15;;;;;;;10.35;2.42;;;;;;;9.84;87.65;98878.69;5117175;28;20099;-63
2023/03/14 02:33:40;;;;;;;12.15;2.30;;;;;;;9.82;87.70;98865.63;5116995;28;20377;-63
2023/03/14 02:36:11;;;;;;;7.93;2.38;;;;;;;9.82;87.39;98860.34;5116721;27;20038;-63
2023/03/14 02:38:55;;;;;;;9.15;2.50;;;;;;;9.85;87.57;98856.50;5116838;27;20039;-61
2023/03/14 02:41:20;;;;;;;10.43;2.88;;;;;;;9.79;87.96;98852.69;5117805;27;20039;-61
2023/03/14 02:43:45;;;;;;;12.70;3.10;;;;;;;9.77;88.23;98852.00;5113449;28;20076;-63
2023/03/14 02:46:16;;;;;;;9.15;2.58;;;;;;;9.75;88.55;98866.44;5113183;27;20119;-63
2023/03/14 02:48:54;;;;;;;8.77;2.70;;;;;;;9.74;88.46;98867.41;5116924;28;20057;-63
2023/03/14 02:51:21;;;;;;;10.98;3.67;;;;;;;9.72;88.77;98862.25;5113733;27;20035;-63
2023/03/14 02:53:46;;;;;;;10.02;2.33;;;;;;;9.72;88.69;98864.09;5116015;27;20051;-63
2023/03/14 02:56:12;;;;;;;10.88;2.53;;;;;;;9.72;88.82;98864.91;5113551;27;20494;-63
2023/03/14 02:58:38;;;;;;;9.63;2.42;;;;;;;9.74;88.70;98878.00;5116803;27;20024;-63
2023/03/14 03:01:03;;;;;;;10.90;2.67;;;;;;;9.74;88.81;98862.09;5117554;27;20012;-63
2023/03/14 03:03:28;;;;;;;12.20;3.30;;;;;;;9.74;88.90;98864.75;5116929;27;20406;-63
2023/03/14 03:05:55;;;;;;;10.98;2.58;;;;;;;9.73;88.83;98869.25;5101061;28;20011;-63
2023/03/14 03:08:23;;;;;;;13.45;2.80;;;;;;;9.73;89.05;98863.94;5112378;28;20037;-63
2023/03/14 03:10:49;;;;;;;10.50;2.85;;;;;;;9.75;88.91;98869.09;5097553;28;20045;-63
2023/03/14 03:13:16;;;;;;;12.38;2.75;;;;;;;9.75;88.77;98869.09;5116408;28;20015;-63
2023/03/14 03:15:41;;;;;;;9.43;2.22;;;;;;;9.76;88.87;98873.41;5112717;28;20030;-63
2023/03/14 03:18:08;;;;;;;12.45;2.97;;;;;;;9.75;88.96;98869.91;5114430;28;20028;-63
2023/03/14 03:20:33;;;;;;;9.20;2.00;;;;;;;9.76;88.78;98865.44;5112534;28;20016;-63
2023/03/14 03:23:00;;;;;;;6.93;2.50;;;;;;;9.76;89.05;98857.50;5116300;28;20040;-63
2023/03/14 03:25:25;;;;;;;7.68;2.60;;;;;;;9.76;88.90;98852.19;5111350;28;20108;-63
2023/03/14 03:27:50;;;;;;;9.70;2.67;;;;;;;9.75;88.85;98863.78;5109865;28;20523;-63
2023/03/14 03:30:16;;;;;;;11.00;2.63;;;;;;;9.75;88.83;98853.19;5110443;28;20385;-63
2023/03/14 03:32:41;;;;;;;8.32;2.35;;;;;;;9.76;88.52;98853.00;5116353;28;20031;-63
2023/03/14 03:35:07;;;;;;;8.48;2.05;;;;;;;9.73;88.76;98861.28;5115150;28;20381;-63
2023/03/14 03:37:33;;;;;;;8.38;1.90;;;;;;;9.73;89.08;98852.50;5114448;28;20032;-64
2023/03/14 03:40:00;;;;;;;8.75;2.22;;;;;;;9.73;88.71;98857.81;5102820;28;20028;-63
2023/03/14 03:42:26;;;;;;;12.05;2.28;;;;;;;9.72;88.63;98853.50;5115766;28;20382;-63
2023/03/14 03:44:52;;;;;;;9.73;2.08;;;;;;;9.71;88.56;98842.06;5102311;28;20036;-63
2023/03/14 03:47:17;;;;;;;7.63;1.98;;;;;;;9.73;88.11;98847.22;5116503;28;20485;-63
2023/03/14 03:49:42;;;;;;;9.73;2.22;;;;;;;9.72;88.00;98843.72;5110419;28;20493;-63
2023/03/14 03:52:09;;;;;;;6.15;2.00;;;;;;;9.71;88.11;98846.53;5117599;28;20110;-63
2023/03/14 03:54:34;;;;;;;9.40;2.58;;;;;;;9.71;88.32;98844.72;5117950;27;20058;-63
2023/03/14 03:56:59;;;;;;;9.90;2.00;;;;;;;9.70;89.53;98856.31;5107533;27;20020;-63
2023/03/14 03:59:25;;;;;;;6.82;1.92;;;;;;;9.67;90.94;98843.38;5112003;27;20024;-63
2023/03/14 04:01:50;;;;;;;9.40;2.50;;;;;;;9.62;92.13;98827.94;5116122;27;20485;-63
2023/03/14 04:04:16;;;;;;;7.20;1.80;;;;;;;9.60;91.73;98834.41;5111627;28;20028;-63
2023/03/14 04:06:41;;;;;;;7.38;1.83;;;;;;;9.54;91.91;98835.88;5105558;28;20117;-63
2023/03/14 04:09:10;;;;;;;5.60;1.65;;;;;;;9.50;91.83;98839.00;5117685;27;20031;-63
2023/03/14 04:11:35;;;;;;;9.75;2.25;;;;;;;9.49;91.53;98838.16;5117781;28;20024;-63
2023/03/14 04:14:01;;;;;;;7.13;2.13;;;;;;;9.45;91.29;98829.72;5120166;27;20023;-63
2023/03/14 04:16:26;;;;;;;6.50;1.80;;;;;;;9.42;91.32;98826.56;5119939;27;20465;-64
2023/03/14 04:18:52;;;;;;;7.18;1.80;;;;;;;9.40;91.46;98834.66;5119909;27;20023;-63
2023/03/14 04:21:17;;;;;;;6.95;1.77;;;;;;;9.39;91.74;98827.72;5111167;27;20111;-63
2023/03/14 04:23:43;;;;;;;5.75;1.70;;;;;;;9.38;92.21;98826.03;5118567;28;20107;-64
2023/03/14 04:26:08;;;;;;;7.90;1.90;;;;;;;9.37;93.19;98837.63;5119782;27;20080;-63
2023/03/14 04:28:36;;;;;;;5.25;1.70;;;;;;;9.36;94.21;98832.47;5107004;27;20077;-63
2023/03/14 04:31:14;;;;;;;7.97;1.70;;;;;;;9.36;94.88;98832.47;5120750;27;20059;-63
2023/03/14 04:33:40;;;;;;;5.53;1.88;;;;;;;9.32;95.66;98826.69;5107392;28;20034;-63
2023/03/14 04:36:06;;;;;;;6.35;2.25;;;;;;;9.30;96.29;98831.31;5118854;28;20059;-63
2023/03/14 04:38:32;;;;;;;4.53;1.75;;;;;;;9.29;96.82;98836.75;5118939;27;20068;-63
2023/03/14 04:40:57;;;;;;;3.15;1.58;;;;;;;9.28;97.62;98829.81;5116299;28;20020;-63
2023/03/14 04:43:23;;;;;;;5.28;1.70;;;;;;;9.26;98.21;98827.34;5116605;27;20023;-63
2023/03/14 04:45:48;;;;;;;4.55;1.58;;;;;;;9.23;99.12;98817.06;5118609;28;20019;-63
2023/03/14 04:48:14;;;;;;;3.15;1.45;;;;;;;9.22;100.00;98831.28;5117720;28;20031;-63
2023/03/14 04:50:39;;;;;;;4.60;1.50;;;;;;;9.16;100.00;98821.31;5118189;28;20390;-63
2023/03/14 04:53:05;;;;;;;5.97;1.70;;;;;;;9.12;100.00;98825.28;5114860;28;20168;-63
2023/03/14 04:55:32;;;;;;;5.90;1.80;;;;;;;9.10;100.00;98824.59;5119746;28;20030;-64
2023/03/14 04:57:58;;;;;;;5.95;1.65;;;;;;;9.04;100.00;98813.66;5119234;28;20039;-64
2023/03/14 05:00:23;;;;;;;3.95;1.45;;;;;;;9.02;100.00;98820.91;5102903;27;20386;-64
2023/03/14 05:02:48;;;;;;;4.18;1.55;;;;;;;8.98;100.00;98827.50;5108594;27;20036;-64
2023/03/14 05:05:13;;;;;;;5.40;1.73;;;;;;;8.95;100.00;98832.31;5114376;28;20031;-64
2023/03/14 05:07:39;;;;;;;6.57;2.38;;;;;;;8.94;100.00;98827.97;5119962;27;20038;-64
2023/03/14 05:10:04;;;;;;;3.35;1.60;;;;;;;8.91;100.00;98820.34;5114717;27;20024;-64
2023/03/14 05:12:30;;;;;;;3.22;1.80;;;;;;;8.88;100.00;98824.97;5116344;27;20024;-64
2023/03/14 05:14:55;;;;;;;5.70;1.70;;;;;;;8.84;100.00;98820.13;5109613;28;20031;-63
2023/03/14 05:17:20;;;;;;;6.00;2.08;;;;;;;8.85;100.00;98819.16;5119280;27;20086;-63
2023/03/14 05:19:46;;;;;;;3.65;1.70;;;;;;;8.81;100.00;98828.38;5113684;28;20024;-63
2023/03/14 05:22:11;;;;;;;5.05;1.90;;;;;;;8.79;100.00;98823.28;5115981;28;20044;-64
2023/03/14 05:24:37;;;;;;;7.53;1.83;;;;;;;8.79;100.00;98825.06;5097910;28;20080;-63
2023/03/14 05:27:03;;;;;;;2.33;1.98;;;;;;;8.78;100.00;98821.59;5116549;27;20156;-64
2023/03/14 05:29:28;;;;;;;5.57;1.98;;;;;;;8.77;100.00;98819.94;5109635;28;20035;-64
2023/03/14 05:31:54;;;;;;;5.65;2.58;;;;;;;8.78;100.00;98804.91;5116364;28;20088;-64
2023/03/14 05:34:19;;;;;;;7.13;2.38;;;;;;;8.77;100.00;98801.41;5096048;28;20428;-64
2023/03/14 05:36:44;;;;;;;4.65;2.47;;;;;;;8.76;100.00;98794.47;5114937;28;20092;-64
2023/03/14 05:39:10;;;;;;;6.60;2.40;;;;;;;8.76;100.00;98805.06;5109502;28;20421;-63
2023/03/14 05:41:35;;;;;;;4.95;2.60;;;;;;;8.76;100.00;98799.75;5114094;28;20051;-64
2023/03/14 05:44:01;;;;;;;8.07;2.75;;;;;;;8.76;100.00;98799.75;5111867;27;20032;-64
2023/03/14 05:46:26;;;;;;;9.07;2.60;;;;;;;8.77;100.00;98800.59;5113523;28;20024;-64
2023/03/14 05:48:52;;;;;;;7.38;2.72;;;;;;;8.77;100.00;98800.59;5112898;28;20470;-64
2023/03/14 05:51:17;;;;;;;5.82;2.60;;;;;;;8.75;100.00;98797.28;5114177;27;20038;-64
2023/03/14 05:53:42;;;;;;;5.93;2.85;;;;;;;8.74;100.00;98795.59;5117537;27;20127;-64
2023/03/14 05:56:08;;;;;;;8.82;3.00;;;;;;;8.73;100.00;98796.56;5113807;27;20031;-64
2023/03/14 05:58:34;;;;;;;6.95;2.60;;;;;;;8.73;100.00;98800.06;5117818;28;20020;-64
2023/03/14 06:01:04;;;;;;;8.57;3.00;;;;;;;8.73;100.00;98788.63;5102375;27;20019;-64
2023/03/14 06:03:29;;;;;;;7.15;2.95;;;;;;;8.72;100.00;98792.28;5116728;27;20470;-64
2023/03/14 06:05:54;;;;;;;8.05;3.20;;;;;;;8.73;100.00;98788.63;5110348;27;20027;-64
2023/03/14 06:08:19;;;;;;;5.55;3.15;;;;;;;8.73;100.00;98784.19;5116591;28;20031;-64
2023/03/14 06:10:45;;;;;;;5.55;2.90;;;;;;;8.72;100.00;98792.28;5118165;27;20050;-64
2023/03/14 06:13:10;;;;;;;4.53;2.90;;;;;;;8.69;100.00;98785.47;5107131;28;20450;-64
2023/03/14 06:15:35;;;;;;;5.22;2.92;;;;;;;8.71;100.00;98794.13;5117577;27;20038;-64
2023/03/14 06:18:01;;;;;;;8.10;3.70;;;;;;;8.72;100.00;98798.41;5116037;28;20035;-64
2023/03/14 06:20:26;;;;;;;5.72;3.60;;;;;;;8.73;100.00;98799.22;5119936;27;20051;-64
2023/03/14 06:22:51;;;;;;;6.25;3.83;;;;;;;8.72;100.00;98793.09;5116835;28;20102;-64
2023/03/14 06:25:17;;;;;;;8.85;3.58;;;;;;;8.73;100.00;98791.28;5113446;27;20537;-64
2023/03/14 06:27:42;;;;;;;6.25;3.60;;;;;;;8.74;100.00;98796.41;5102342;28;20019;-61
2023/03/14 06:30:08;;;;;;;9.13;4.03;;;;;;;8.75;100.00;98794.63;5117529;27;20026;-62
2023/03/14 06:32:33;;;;;;;7.47;3.83;;;;;;;8.75;100.00;98797.28;5115320;28;20132;-62
2023/03/14 06:35:00;;;;;;;7.07;3.65;;;;;;;8.77;100.00;98790.00;5110243;27;20115;-62
2023/03/14 06:37:27;;;;;;;7.18;3.50;;;;;;;8.79;100.00;98806.53;5100351;28;20039;-61
2023/03/14 06:39:52;;;;;;;6.63;3.88;;;;;;;8.79;100.00;98798.59;5113532;27;20043;-64
2023/03/14 06:42:18;;;;;;;5.57;3.75;;;;;;;8.80;100.00;98808.22;5110686;28;20047;-64
2023/03/14 06:44:43;;;;;;;6.00;3.92;;;;;;;8.81;100.00;98804.56;5101236;28;20039;-64
2023/03/14 06:47:08;;;;;;;7.03;3.90;;;;;;;8.84;100.00;98809.56;5114769;27;20027;-64
2023/03/14 06:49:34;;;;;;;8.45;4.20;;;;;;;8.86;100.00;98800.47;5108836;27;20035;-64
2023/03/14 06:51:59;;;;;;;8.45;4.28;;;;;;;8.91;100.00;98804.47;5115764;27;20332;-64
2023/03/14 06:54:24;;;;;;;6.82;4.53;;;;;;;8.93;100.00;98808.63;5098140;28;20028;-63
2023/03/14 06:56:49;;;;;;;8.45;3.90;;;;;;;8.98;100.00;98819.56;5116321;28;20023;-62
2023/03/14 06:59:15;;;;;;;10.40;4.63;;;;;;;9.01;100.00;98813.97;5114039;28;20416;-63
2023/03/14 07:01:40;;;;;;;7.38;5.05;;;;;;;9.02;100.00;98820.91;5113445;28;20011;-62
2023/03/14 07:04:06;;;;;;;8.77;3.70;;;;;;;9.05;100.00;98817.13;5110175;28;20035;-62
2023/03/14 07:06:33;;;;;;;9.45;4.20;;;;;;;9.06;100.00;98819.63;5115445;27;20430;-62
2023/03/14 07:08:58;;;;;;;6.60;3.97;;;;;;;9.07;100.00;98826.56;5116943;27;20045;-63
2023/03/14 07:11:24;;;;;;;9.02;4.15;;;;;;;9.07;100.00;98823.09;5115516;27;20102;-62
2023/03/14 07:13:49;;;;;;;5.15;3.70;;;;;;;9.07;100.00;98834.50;5111488;27;20123;-62
2023/03/14 07:16:14;;;;;;;7.72;4.43;;;;;;;9.08;100.00;98838.00;5113805;27;20126;-62
2023/03/14 07:18:40;;;;;;;6.07;3.72;;;;;;;9.09;100.00;98850.22;5111276;28;20023;-63
2023/03/14 07:21:09;;;;;;;5.65;4.00;;;;;;;9.07;100.00;98855.69;5114901;28;20049;-62
2023/03/14 07:23:35;;;;;;;11.02;4.38;;;;;;;9.09;100.00;98860.81;5117907;28;20019;-63
2023/03/14 07:26:00;;;;;;;5.65;4.07;;;;;;;9.09;100.00;98895.25;5112030;28;20031;-62
2023/03/14 07:28:27;;;;;;;3.85;3.05;;;;;;;9.01;100.00;98930.47;5107924;28;20055;-63
2023/03/14 07:30:53;;;;;;;4.63;2.97;;;;;;;8.94;100.00;98947.13;5109030;28;20434;-63
2023/03/14 07:33:19;;;;;;;2.10;1.90;;;;;;;8.87;100.00;98960.13;5110149;28;20398;-63
2023/03/14 07:35:47;;;;;;;3.58;1.90;;;;;;;8.72;100.00;98970.44;5108013;28;20059;-63
2023/03/14 07:38:12;;;;;;;3.75;1.90;;;;;;;8.63;100.00;98980.13;5109786;28;20069;-63
2023/03/14 07:40:37;;;;;;;1.65;1.27;;;;;;;8.51;100.00;98990.09;5105003;28;20052;-63
2023/03/14 07:43:03;;;;;;;4.88;1.25;;;;;;;8.41;100.00;98999.88;5110821;28;20043;-62
2023/03/14 07:45:28;;;;;;;2.05;1.08;;;;;;;8.34;100.00;99006.72;5111316;28;20039;-63
2023/03/14 07:47:57;;;;;;;0.82;0.82;;;;;;;8.27;100.00;99017.06;5109429;28;20034;-62
2023/03/14 07:50:22;;;;;;;2.00;0.93;;;;;;;8.20;100.00;99036.34;5109507;28;20071;-62
2023/03/14 07:52:48;;;;;;;3.33;1.00;;;;;;;8.11;100.00;99030.09;5107692;28;20096;-62
2023/03/14 07:55:14;;;;;;;2.78;1.30;;;;;;;8.08;100.00;99043.63;5116340;28;20040;-62
2023/03/14 07:57:39;;;;;;;1.55;1.40;;;;;;;8.06;100.00;99050.84;5112697;28;20028;-63
2023/03/14 08:00:06;;;;;;;2.47;1.70;;;;;;;8.00;100.00;99062.03;5109850;28;20046;-62
2023/03/14 08:02:31;;;;;;;2.22;2.03;;;;;;;7.97;100.00;99068.44;5110366;28;20397;-63
2023/03/14 08:04:56;;;;;;;4.32;2.10;;;;;;;7.93;100.00;99077.66;5117360;28;20051;-62
2023/03/14 08:07:22;;;;;;;2.70;2.00;;;;;;;7.91;100.00;99084.88;5113579;28;20073;-62
2023/03/14 08:09:47;;;;;;;5.90;2.03;;;;;;;7.87;100.00;99089.59;5101197;28;20489;-62
2023/03/14 08:12:12;;;;;;;2.75;1.70;;;;;;;7.82;100.00;99086.56;5104826;28;20163;-63
2023/03/14 08:14:38;;;;;;;5.00;1.65;;;;;;;7.80;100.00;99107.03;5090182;28;21069;-62
2023/03/14 08:17:05;;;;;;;4.85;1.50;;;;;;;7.75;100.00;99114.56;5112310;28;20510;-62
2023/03/14 08:19:30;;;;;;;1.60;1.30;;;;;;;7.73;100.00;99127.91;5111892;28;20063;-62
2023/03/14 08:21:55;;;;;;;1.45;1.20;;;;;;;7.72;100.00;99135.97;5111552;28;20459;-63
2023/03/14 08:24:21;;;;;;;2.35;1.15;;;;;;;7.73;100.00;99156.16;5105251;28;20047;-62
2023/03/14 08:26:46;;;;;;;2.58;1.40;;;;;;;7.71;100.00;99166.00;5102326;28;20187;-63
2023/03/14 08:29:12;;;;;;;3.75;1.50;;;;;;;7.70;100.00;99164.34;5114085;28;20397;-63
2023/03/14 08:31:38;;;;;;;5.70;1.60;;;;;;;7.68;100.00;99174.25;5116352;27;20401;-63
2023/03/14 08:34:03;;;;;;;5.82;1.55;;;;;;;7.70;100.00;99180.22;5112040;27;20048;-62
2023/03/14 08:36:29;;;;;;;3.65;1.55;;;;;;;7.68;100.00;99193.56;5105940;28;20497;-64
2023/03/14 08:38:54;;;;;;;3.15;1.70;;;;;;;7.69;100.00;99202.31;5114217;27;20424;-64
2023/03/14 08:41:20;;;;;;;4.47;1.90;;;;;;;7.67;100.00;99205.09;5102348;28;20043;-64
2023/03/14 08:43:45;;;;;;;3.53;2.08;;;;;;;7.66;100.00;99213.16;5092265;28;20050;-65
2023/03/14 08:46:11;;;;;;;3.42;2.00;;;;;;;7.66;100.00;99229.00;5109326;28;20032;-64
2023/03/14 08:48:36;;;;;;;5.00;2.25;;;;;;;7.68;100.00;99235.84;5111389;28;20059;-64
2023/03/14 08:51:12;;;;;;;4.18;1.88;;;;;;;7.66;100.00;99240.44;5116654;27;20078;-64
2023/03/14 08:53:38;;;;;;;5.47;1.90;;;;;;;7.63;100.00;99250.41;5114900;28;20040;-64
2023/03/14 08:56:05;;;;;;;3.80;1.92;;;;;;;7.65;100.00;99256.44;5107061;28;20381;-62
2023/03/14 08:58:31;;;;;;;6.18;2.40;;;;;;;7.65;100.00;99253.78;5108168;28;20106;-62
2023/03/14 09:00:56;;;;;;;4.45;2.40;;;;;;;7.64;100.00;99278.53;5108744;28;20119;-62
2023/03/14 09:03:23;;;;;;;6.43;3.00;;;;;;;7.64;100.00;99278.53;5115150;27;20032;-62
2023/03/14 09:05:49;;;;;;;5.72;2.40;;;;;;;7.63;100.00;99284.78;5109453;28;20043;-62
2023/03/14 09:08:14;;;;;;;4.60;2.20;;;;;;;7.62;100.00;99297.16;5108350;28;20493;-61
2023/03/14 09:10:39;;;;;;;2.90;1.88;;;;;;;7.62;100.00;99296.34;5113174;27;20040;-62
2023/03/14 09:13:04;;;;;;;4.72;2.22;;;;;;;7.63;100.00;99314.69;5111818;27;20123;-62
2023/03/14 09:15:30;;;;;;;4.75;1.90;;;;;;;7.66;100.00;99318.84;5115927;27;20052;-62
2023/03/14 09:17:55;;;;;;;6.00;2.00;;;;;;;7.68;100.00;99322.22;5113690;28;20020;-62
2023/03/14 09:20:20;;;;;;;3.22;1.90;;;;;;;7.74;100.00;99338.38;5113484;27;20100;-61
2023/03/14 09:22:46;;;;;;;4.97;2.08;;;;;;;7.78;100.00;99342.38;5114221;27;20024;-62
2023/03/14 09:25:11;;;;;;;4.55;2.40;;;;;;;7.83;100.00;99354.34;5113033;28;20056;-62
2023/03/14 09:27:36;;;;;;;7.47;1.90;;;;;;;7.83;100.00;99355.19;5107471;27;20024;-62
2023/03/14 09:30:03;;;;;;;5.10;1.85;;;;;;;7.84;100.00;99369.25;5114270;27;20028;-62
2023/03/14 09:32:31;;;;;;;5.03;1.70;;;;;;;7.79;100.00;99374.94;5113343;28;20100;-62
2023/03/14 09:34:56;;;;;;;4.32;1.73;;;;;;;7.74;100.00;99393.88;5110343;28;20043;-63
2023/03/14 09:37:21;;;;;;;3.38;1.40;;;;;;;7.71;100.00;99401.19;5113883;28;20362;-62
2023/03/14 09:39:47;;;;;;;1.42;1.17;;;;;;;7.63;100.00;99427.47;5110225;28;20478;-62
2023/03/14 09:42:21;;;;;;;1.58;1.10;;;;;;;7.49;100.00;99445.34;5106946;28;20054;-62
2023/03/14 09:44:56;;;;;;;1.13;0.80;;;;;;;7.42;100.00;99452.13;5113463;27;20046;-62
2023/03/14 09:47:23;;;;;;;2.08;1.08;;;;;;;7.31;100.00;99474.19;5110900;28;20035;-63
2023/03/14 09:49:49;;;;;;;4.05;0.93;;;;;;;7.25;100.00;99492.38;5099068;28;20127;-63
2023/03/14 09:52:30;;;;;;;1.27;0.93;;;;;;;7.15;100.00;99511.63;5110296;27;20488;-63
2023/03/14 09:55:04;;;;;;;1.13;0.77;;;;;;;7.01;100.00;99525.13;5113033;28;20490;-63
2023/03/14 09:57:31;;;;;;;2.78;1.17;;;;;;;6.91;100.00;99534.75;5104263;28;20055;-62
2023/03/14 10:00:13;;;;;;;1.48;0.95;;;;;;;6.81;98.83;99546.09;5113894;27;20441;-62
2023/03/14 10:02:41;;;;;;;1.13;1.00;;;;;;;6.77;99.58;99555.22;5117538;27;20039;-62
2023/03/14 10:05:18;;;;;;;2.63;0.90;;;;;;;6.80;100.00;99562.88;5119162;27;20046;-63
2023/03/14 10:07:43;;;;;;;3.72;0.98;;;;;;;6.87;100.00;99586.13;5108440;27;20016;-62
2023/03/14 10:10:29;;;;;;;2.55;1.02;;;;;;;7.01;100.00;99588.47;5118411;27;20027;-62
2023/03/14 10:12:58;;;;;;;2.70;1.20;;;;;;;7.04;100.00;99596.16;5117417;27;20039;-62
2023/03/14 10:15:30;;;;;;;3.97;1.48;;;;;;;7.13;99.51;99605.13;5102775;28;20064;-62
2023/03/14 10:18:00;;;;;;;5.55;1.80;;;;;;;7.23;100.00;99621.91;5121056;27;20031;-62
2023/03/14 10:20:35;;;;;;;7.40;2.47;;;;;;;7.27;99.26;99641.78;5115159;27;20104;-62
2023/03/14 10:23:22;;;;;;;7.38;1.90;;;;;;;7.39;100.00;99653.16;5119588;27;20023;-62
2023/03/14 10:26:05;;;;;;;6.63;1.73;;;;;;;7.46;98.56;99664.91;5113296;27;20019;-62
2023/03/14 10:28:33;;;;;;;7.38;2.05;;;;;;;7.47;97.82;99673.66;5105305;28;20024;-61
2023/03/14 10:31:00;;;;;;;5.32;1.80;;;;;;;7.48;98.69;99686.75;5113067;28;20059;-62
2023/03/14 10:33:28;;;;;;;4.80;1.65;;;;;;;7.52;96.59;99698.72;5106349;28;20061;-62
2023/03/14 10:36:14;;;;;;;6.83;1.87;;;;;;;7.63;96.29;99689.94;5113428;27;20063;-62
2023/03/14 10:38:39;;;;;;;7.65;2.25;;;;;;;7.74;95.31;99705.75;5101827;28;20050;-62
2023/03/14 10:41:16;;;;;;;7.95;2.20;;;;;;;7.74;94.06;99707.53;5106672;27;20044;-62
2023/03/14 10:43:42;;;;;;;7.97;2.20;;;;;;;7.80;93.65;99728.16;5102888;28;20352;-62
2023/03/14 10:46:17;;;;;;;13.00;3.05;;;;;;;7.76;91.55;99735.53;5110388;28;20106;-62
2023/03/14 10:48:45;;;;;;;11.45;2.47;;;;;;;7.67;90.59;99744.19;5109866;28;20140;-62
2023/03/14 10:51:17;;;;;;;12.38;2.47;;;;;;;7.62;92.09;99756.13;5110159;27;20031;-62
2023/03/14 10:54:18;;;;;;;12.93;2.67;;;;;;;7.64;93.48;99781.44;5071545;28;20048;-62
2023/03/14 10:56:44;;;;;;;11.23;2.50;;;;;;;7.55;94.84;99790.97;5108405;28;20031;-63
2023/03/14 10:59:15;;;;;;;10.20;2.38;;;;;;;7.47;92.31;99798.66;5108133;28;20035;-62
2023/03/14 11:01:53;;;;;;;6.13;2.10;;;;;;;7.30;92.36;99810.59;5106113;28;20118;-63
2023/03/14 11:04:37;;;;;;;11.38;2.20;;;;;;;7.16;92.21;99813.47;5111751;27;20040;-63
2023/03/14 11:07:12;;;;;;;10.68;2.53;;;;;;;7.15;93.96;99822.38;5117949;27;20489;-63
2023/03/14 11:09:50;;;;;;;16.25;3.08;;;;;;;7.12;94.25;99826.06;5110794;28;20435;-63
2023/03/14 11:12:52;;;;;;;10.75;2.58;;;;;;;7.23;96.56;99847.22;5108330;28;20028;-63
2023/03/14 11:15:30;;;;;;;11.13;2.35;;;;;;;7.30;97.22;99858.13;5103118;27;20038;-62
2023/03/14 11:18:22;;;;;;;10.43;2.03;;;;;;;7.39;98.21;99853.91;5111806;28;20046;-62
2023/03/14 11:20:57;;;;;;;14.48;2.58;;;;;;;7.50;97.79;99855.72;5104972;28;20055;-62
2023/03/14 11:23:38;;;;;;;15.68;3.03;;;;;;;7.57;98.20;99878.88;5088106;28;20035;-62
2023/03/14 11:26:22;;;;;;;13.93;2.65;;;;;;;7.61;97.10;99887.41;5105934;28;20085;-62
2023/03/14 11:28:50;;;;;;;12.05;2.40;;;;;;;7.59;96.28;99882.25;5107010;28;20046;-62
2023/03/14 11:31:18;;;;;;;13.10;2.90;;;;;;;7.63;96.61;99898.72;5110933;28;20611;-62
2023/03/14 11:34:00;;;;;;;13.02;2.55;;;;;;;7.66;95.29;99902.88;5111250;28;20050;-62
2023/03/14 11:36:51;;;;;;;12.52;3.40;;;;;;;7.66;95.89;99916.09;5108255;28;20024;-63
2023/03/14 11:39:18;;;;;;;10.70;2.92;;;;;;;7.51;96.58;99944.56;5109714;28;20110;-63